Time;durP1;ratioP1;P1;durP2;ratioP2;P2;SDS_P1;SDS_P2;PMS_P1;PMS_P2;Temp;Humidity;BMP_temperature;BMP_pressure;BME280_temperature;BME280_humidity;BME280_pressure;Samples;Min_cycle;Max_cycle;Signal;HPM_P1;HPM_P2
2022/06/03 00:00:22;;;;;;;17.50;10.70;;;;;;;21.21;100.00;99366.47;4990560;28;20202;-84
2022/06/03 00:03:11;;;;;;;12.77;10.60;;;;;;;21.08;100.00;99365.63;4991572;28;20221;-84
2022/06/03 00:05:39;;;;;;;15.07;10.30;;;;;;;21.07;100.00;99363.91;4994266;28;20680;-84
2022/06/03 00:08:35;;;;;;;19.30;10.33;;;;;;;21.07;100.00;99353.59;4993920;28;20174;-84
2022/06/03 00:11:18;;;;;;;15.77;10.23;;;;;;;21.04;100.00;99363.88;4994298;28;20168;-84
2022/06/03 00:14:10;;;;;;;14.80;10.03;;;;;;;21.18;100.00;99367.34;4994404;28;20583;-84
2022/06/03 00:17:02;;;;;;;15.23;9.80;;;;;;;20.98;100.00;99368.16;4994348;28;20291;-85
2022/06/03 00:19:52;;;;;;;13.87;9.30;;;;;;;20.90;100.00;99365.59;4979175;28;20178;-85
2022/06/03 00:22:38;;;;;;;14.50;9.67;;;;;;;20.10;100.00;99290.72;5010085;28;20195;-85
2022/06/03 00:25:09;;;;;;;15.80;9.77;;;;;;;20.35;100.00;99354.28;5000891;28;20222;-83
2022/06/03 00:27:52;;;;;;;14.20;9.40;;;;;;;20.33;100.00;99358.53;4994058;28;20168;-85
2022/06/03 00:30:29;;;;;;;16.90;10.03;;;;;;;20.38;100.00;99364.56;5036132;28;20172;-84
2022/06/03 00:33:37;;;;;;;14.70;9.67;;;;;;;20.48;100.00;99363.75;5019356;28;20170;-85
2022/06/03 00:36:25;;;;;;;16.37;10.57;;;;;;;19.93;100.00;99266.66;5038622;28;20173;-83
2022/06/03 00:39:06;;;;;;;16.77;9.73;;;;;;;20.56;100.00;99359.50;5037030;28;20162;-86
2022/06/03 00:41:55;;;;;;;14.27;9.17;;;;;;;19.34;100.00;99158.47;5035430;28;20166;-84
2022/06/03 00:44:45;;;;;;;13.43;8.97;;;;;;;20.52;100.00;99352.59;5015255;28;20178;-84
2022/06/03 00:47:47;;;;;;;16.27;8.67;;;;;;;20.58;100.00;99350.06;5015389;28;20158;-83
2022/06/03 00:50:37;;;;;;;14.07;8.87;;;;;;;20.52;100.00;99344.88;5015483;28;20531;-83
2022/06/03 00:53:13;;;;;;;14.10;8.67;;;;;;;20.51;100.00;99350.03;5015227;28;20194;-85
2022/06/03 00:55:59;;;;;;;15.93;9.00;;;;;;;20.47;100.00;99356.88;5015102;28;20173;-83
2022/06/03 00:58:34;;;;;;;13.03;8.53;;;;;;;19.17;100.00;99124.19;5015188;28;20635;-84
2022/06/03 01:01:23;;;;;;;12.03;8.43;;;;;;;20.35;100.00;99344.00;5015121;28;20158;-84
2022/06/03 01:04:14;;;;;;;14.77;8.70;;;;;;;19.84;100.00;99256.34;5015186;28;20162;-84
2022/06/03 01:07:07;;;;;;;17.00;8.93;;;;;;;20.26;100.00;99350.81;5014689;28;20182;-84
2022/06/03 01:09:53;;;;;;;16.93;8.70;;;;;;;20.21;100.00;99324.19;5015024;28;20175;-84
2022/06/03 01:12:28;;;;;;;15.10;8.37;;;;;;;20.24;100.00;99344.78;4997393;28;20631;-84
2022/06/03 01:15:15;;;;;;;14.30;8.00;;;;;;;20.23;100.00;99341.34;5014462;28;20161;-86
2022/06/03 01:17:52;;;;;;;13.43;8.37;;;;;;;19.13;100.00;99130.16;5015898;28;20158;-84
2022/06/03 01:20:27;;;;;;;15.43;7.90;;;;;;;20.16;100.00;99316.44;5014381;28;20191;-84
2022/06/03 01:23:07;;;;;;;14.20;7.70;;;;;;;20.36;100.00;99348.25;5014675;28;20154;-84
2022/06/03 01:25:54;;;;;;;10.33;7.50;;;;;;;20.33;100.00;99348.25;5015867;28;20552;-83
2022/06/03 01:28:53;;;;;;;13.00;7.93;;;;;;;20.19;100.00;99339.59;5017228;28;20167;-84
2022/06/03 01:31:54;;;;;;;10.53;7.73;;;;;;;18.64;100.00;99103.34;4999515;28;20257;-84
2022/06/03 01:34:19;;;;;;;14.23;8.27;;;;;;;20.19;100.00;99347.31;5014792;28;20216;-84
2022/06/03 01:36:57;;;;;;;15.57;8.30;;;;;;;20.45;100.00;99344.88;5017523;28;20677;-84
2022/06/03 01:39:57;;;;;;;14.67;8.23;;;;;;;20.37;100.00;99338.84;4999524;28;20495;-83
2022/06/03 01:42:32;;;;;;;12.20;7.63;;;;;;;20.47;100.00;99332.88;5021248;28;20225;-85
2022/06/03 01:45:29;;;;;;;12.23;7.53;;;;;;;20.19;100.00;99328.47;5034172;28;20193;-83
2022/06/03 01:48:04;;;;;;;12.53;7.90;;;;;;;20.06;100.00;99319.81;5034708;28;20249;-83
2022/06/03 01:50:57;;;;;;;11.90;7.90;;;;;;;19.98;100.00;99327.50;5035676;28;20157;-83
2022/06/03 01:53:22;;;;;;;12.17;7.97;;;;;;;19.75;100.00;99333.38;5017235;28;20625;-84
2022/06/03 01:56:14;;;;;;;15.07;7.97;;;;;;;19.79;100.00;99333.41;5034255;28;20162;-84
2022/06/03 01:58:46;;;;;;;13.03;7.83;;;;;;;19.83;100.00;99336.88;5035111;28;20158;-82
2022/06/03 02:01:49;;;;;;;17.13;8.50;;;;;;;19.68;100.00;99334.19;5035928;28;20222;-84
2022/06/03 02:04:26;;;;;;;16.13;9.00;;;;;;;19.73;100.00;99340.19;5037000;28;20542;-84
2022/06/03 02:07:10;;;;;;;12.20;8.13;;;;;;;19.88;100.00;99332.59;5035900;28;20733;-84
2022/06/03 02:09:49;;;;;;;15.60;8.63;;;;;;;19.49;100.00;99314.38;5035541;28;20219;-83
2022/06/03 02:12:26;;;;;;;12.10;7.67;;;;;;;19.55;100.00;99337.53;5035405;28;20559;-84
2022/06/03 02:15:06;;;;;;;12.80;8.03;;;;;;;19.60;100.00;99336.72;5035615;28;20636;-84
2022/06/03 02:17:50;;;;;;;14.40;8.17;;;;;;;19.61;100.00;99335.00;5035015;28;20173;-84
2022/06/03 02:20:50;;;;;;;15.67;8.30;;;;;;;19.81;100.00;99341.09;5020266;28;20277;-84
2022/06/03 02:23:31;;;;;;;14.70;7.87;;;;;;;19.64;100.00;99345.31;4938005;29;20193;-83
2022/06/03 02:25:59;;;;;;;12.23;7.70;;;;;;;19.75;100.00;99341.09;4938210;29;20698;-84
2022/06/03 02:28:33;;;;;;;15.27;8.07;;;;;;;19.63;100.00;99343.56;4934764;29;20197;-84
2022/06/03 02:31:07;;;;;;;16.90;8.20;;;;;;;19.79;100.00;99342.81;4933846;29;20309;-84
2022/06/03 02:33:51;;;;;;;13.73;8.37;;;;;;;19.63;100.00;99348.72;4934114;29;20255;-85
2022/06/03 02:37:08;;;;;;;14.70;8.07;;;;;;;19.67;100.00;99346.16;4918266;29;20237;-84
2022/06/03 02:39:54;;;;;;;19.20;8.57;;;;;;;19.68;100.00;99339.31;4862822;29;20188;-84
2022/06/03 02:42:28;;;;;;;14.53;7.63;;;;;;;19.90;100.00;99349.75;4877205;29;20325;-84
2022/06/03 02:45:20;;;;;;;15.10;7.90;;;;;;;19.75;100.00;99346.22;4861957;29;20297;-84
2022/06/03 02:48:10;;;;;;;16.30;8.60;;;;;;;19.81;100.00;99344.53;4877235;29;20685;-84
2022/06/03 02:51:03;;;;;;;16.67;8.30;;;;;;;19.98;100.00;99344.63;4858709;29;20192;-85
2022/06/03 02:54:08;;;;;;;14.77;8.60;;;;;;;19.61;100.00;99276.81;4858529;29;20199;-84
2022/06/03 02:56:39;;;;;;;10.93;7.87;;;;;;;20.13;100.00;99356.72;4840496;29;20328;-83
2022/06/03 02:59:19;;;;;;;16.67;8.77;;;;;;;20.03;100.00;99363.50;4838844;29;20243;-84
2022/06/03 03:02:07;;;;;;;13.63;8.43;;;;;;;20.03;100.00;99363.50;4862972;29;20561;-83
2022/06/03 03:04:58;;;;;;;14.57;8.17;;;;;;;20.19;100.00;99362.72;4804254;29;20190;-85
2022/06/03 03:07:54;;;;;;;13.13;8.50;;;;;;;20.05;100.00;99369.53;4803947;29;20166;-83
2022/06/03 03:10:50;;;;;;;20.47;8.80;;;;;;;20.13;100.00;99369.56;4803447;29;20281;-84
2022/06/03 03:14:00;;;;;;;15.33;8.77;;;;;;;20.35;100.00;99374.84;4804100;29;20166;-84
2022/06/03 03:16:58;;;;;;;17.27;9.17;;;;;;;20.48;100.00;99376.63;4842129;29;20340;-84
2022/06/03 03:19:58;;;;;;;13.50;9.07;;;;;;;20.47;100.00;99379.16;4840863;29;20176;-84
2022/06/03 03:22:26;;;;;;;14.97;9.53;;;;;;;20.62;100.00;99383.50;4841042;29;20712;-84
2022/06/03 03:25:21;;;;;;;17.33;9.43;;;;;;;20.59;100.00;99384.38;4843832;29;20584;-83
2022/06/03 03:28:02;;;;;;;14.30;8.87;;;;;;;20.23;100.00;99390.19;4849415;29;20192;-84
2022/06/03 03:31:00;;;;;;;16.27;8.97;;;;;;;20.03;100.00;99386.63;4871238;29;20236;-84
2022/06/03 03:34:03;;;;;;;15.13;8.50;;;;;;;20.01;100.00;99388.34;4876367;29;20206;-84
2022/06/03 03:37:05;;;;;;;12.70;8.07;;;;;;;20.26;100.00;99389.38;4876675;29;20206;-84
2022/06/03 03:40:07;;;;;;;16.50;8.73;;;;;;;20.49;100.00;99396.31;4877988;29;20703;-85
2022/06/03 03:42:45;;;;;;;14.23;8.50;;;;;;;19.01;100.00;99110.41;4989460;28;20234;-84
2022/06/03 03:45:41;;;;;;;15.37;8.20;;;;;;;20.63;100.00;99403.25;5012831;28;20663;-84
2022/06/03 03:48:09;;;;;;;14.80;8.40;;;;;;;20.36;100.00;99402.28;5013097;28;20256;-86
2022/06/03 03:50:53;;;;;;;13.80;7.90;;;;;;;20.46;100.00;99408.31;5013107;28;20190;-85
2022/06/03 03:53:31;;;;;;;15.80;8.53;;;;;;;20.79;99.65;99410.16;4995935;28;20180;-85
2022/06/03 03:56:26;;;;;;;16.03;8.50;;;;;;;21.18;94.97;99415.41;5012296;28;20162;-85
2022/06/03 03:59:09;;;;;;;16.20;8.97;;;;;;;21.50;91.91;99431.78;5012987;28;20175;-83
2022/06/03 04:02:08;;;;;;;22.63;9.00;;;;;;;21.39;91.71;99433.47;5020202;28;20210;-84
2022/06/03 04:05:01;;;;;;;17.23;8.73;;;;;;;21.64;88.15;99413.72;5012367;28;20162;-85
2022/06/03 04:07:57;;;;;;;15.90;8.73;;;;;;;21.58;90.57;99434.34;5013566;28;20624;-83
2022/06/03 04:11:01;;;;;;;16.27;8.87;;;;;;;21.67;89.89;99430.03;5015017;28;20250;-85
2022/06/03 04:14:03;;;;;;;17.20;8.87;;;;;;;21.75;89.14;99437.78;5012724;28;20649;-84
2022/06/03 04:16:47;;;;;;;15.87;8.87;;;;;;;22.05;87.22;99442.06;5011803;28;20159;-84
2022/06/03 04:19:28;;;;;;;15.93;8.70;;;;;;;22.40;84.12;99450.59;5011862;28;20169;-84
2022/06/03 04:22:16;;;;;;;18.83;9.03;;;;;;;22.49;83.23;99453.13;4994595;28;20557;-85
2022/06/03 04:24:52;;;;;;;17.97;9.17;;;;;;;21.58;82.94;99301.22;5011898;28;20631;-85
2022/06/03 04:27:45;;;;;;;19.33;9.30;;;;;;;22.72;83.51;99458.22;4994984;28;20174;-84
2022/06/03 04:30:50;;;;;;;17.97;9.93;;;;;;;23.02;80.45;99465.81;4994404;28;20639;-86
2022/06/03 04:33:33;;;;;;;17.57;9.40;;;;;;;23.07;81.16;99471.00;4932453;29;20185;-85
2022/06/03 04:36:36;;;;;;;18.33;9.60;;;;;;;23.37;79.15;99471.72;4917011;29;20185;-84
2022/06/03 04:39:35;;;;;;;18.50;9.37;;;;;;;23.04;80.98;99483.91;4857810;29;20251;-85
2022/06/03 04:42:38;;;;;;;13.83;8.57;;;;;;;22.84;78.58;99420.31;4862639;29;20536;-84
2022/06/03 04:45:25;;;;;;;17.40;8.60;;;;;;;23.29;78.63;99488.91;4857389;29;20306;-84
2022/06/03 04:48:10;;;;;;;16.17;9.03;;;;;;;23.40;78.41;99487.16;4842342;29;20183;-85
2022/06/03 04:50:47;;;;;;;12.93;8.90;;;;;;;23.84;76.19;99494.59;4858932;29;20199;-85
2022/06/03 04:53:49;;;;;;;12.00;8.40;;;;;;;24.10;73.62;99493.53;4860502;29;20180;-85
2022/06/03 04:57:11;;;;;;;16.20;8.57;;;;;;;24.27;72.16;99509.78;4860252;29;20684;-84
2022/06/03 05:00:04;;;;;;;16.27;9.63;;;;;;;24.38;71.67;99510.53;4842035;29;20608;-85
2022/06/03 05:02:32;;;;;;;16.77;9.80;;;;;;;24.57;70.39;99505.16;4843503;29;20193;-84
2022/06/03 05:05:35;;;;;;;17.00;9.10;;;;;;;24.63;68.42;99493.88;4828866;29;20251;-84
2022/06/03 05:08:38;;;;;;;17.67;8.60;;;;;;;24.81;68.00;99504.03;4843246;29;20271;-85
2022/06/03 05:11:21;;;;;;;13.93;8.30;;;;;;;25.04;66.17;99502.03;4872002;29;20665;-84
2022/06/03 05:13:55;;;;;;;14.17;7.73;;;;;;;24.92;65.32;99501.31;4879122;29;20163;-84
2022/06/03 05:16:42;;;;;;;14.47;8.07;;;;;;;24.92;66.21;99512.53;4919447;29;20181;-85
2022/06/03 05:19:22;;;;;;;13.87;7.23;;;;;;;25.02;65.72;99506.38;4935546;29;20173;-84
2022/06/03 05:22:06;;;;;;;12.87;7.60;;;;;;;25.01;66.31;99512.44;4935511;29;20184;-84
2022/06/03 05:24:43;;;;;;;14.37;7.40;;;;;;;24.73;65.40;99438.50;4935276;29;20185;-83
2022/06/03 05:27:37;;;;;;;14.07;7.73;;;;;;;25.29;65.51;99512.06;4935458;29;20180;-83
2022/06/03 05:30:20;;;;;;;13.17;7.63;;;;;;;25.58;64.61;99517.69;4969875;28;20244;-84
2022/06/03 05:33:07;;;;;;;11.67;7.63;;;;;;;25.82;64.80;99513.88;5029466;28;20182;-85
2022/06/03 05:35:38;;;;;;;11.97;7.20;;;;;;;25.82;64.26;99512.16;5008860;28;20162;-83
2022/06/03 05:38:40;;;;;;;14.07;7.57;;;;;;;26.09;63.60;99516.03;5024112;28;20170;-84
2022/06/03 05:44:40;;;;;;;12.73;6.83;;;;;;;25.47;61.58;99506.63;5027008;28;20553;-83
2022/06/03 05:47:13;;;;;;;8.40;6.63;;;;;;;25.31;61.61;99468.81;5034104;28;20158;-83
2022/06/03 05:50:01;;;;;;;12.80;7.00;;;;;;;25.63;61.16;99515.88;5034003;28;20181;-83
2022/06/03 05:52:47;;;;;;;12.03;6.97;;;;;;;25.48;61.51;99440.94;5034043;28;20228;-84
2022/06/03 05:55:19;;;;;;;9.50;6.83;;;;;;;25.68;60.09;99501.97;5035632;28;20567;-84
2022/06/03 05:58:06;;;;;;;15.57;6.90;;;;;;;25.84;59.97;99515.59;5035661;28;20169;-84
2022/06/03 06:00:43;;;;;;;10.30;6.87;;;;;;;25.84;58.61;99475.81;5015618;28;20299;-84
2022/06/03 06:03:17;;;;;;;13.90;6.88;;;;;;;26.38;57.91;99512.06;5034043;28;20701;-83
2022/06/03 06:06:07;;;;;;;10.17;6.60;;;;;;;26.14;57.89;99512.50;5034119;28;20659;-85
2022/06/03 06:08:40;;;;;;;14.43;7.03;;;;;;;25.10;58.93;99336.13;5034075;28;20170;-83
2022/06/03 06:11:18;;;;;;;13.02;6.90;;;;;;;26.61;57.87;99510.78;5034016;28;20592;-83
2022/06/03 06:14:05;;;;;;;15.70;7.10;;;;;;;25.62;57.74;99311.91;5016159;28;20170;-84
2022/06/03 06:16:37;;;;;;;9.82;7.22;;;;;;;26.47;56.32;99472.09;5016354;28;20192;-84
2022/06/03 06:19:41;;;;;;;9.88;6.68;;;;;;;26.78;56.76;99517.38;5033880;28;20537;-85
2022/06/03 06:22:30;;;;;;;11.75;7.05;;;;;;;27.07;55.79;99514.19;5034914;28;20193;-85
2022/06/03 06:25:11;;;;;;;9.27;7.30;;;;;;;26.37;56.02;99409.09;5038333;28;20169;-84
2022/06/03 06:27:59;;;;;;;12.32;7.22;;;;;;;26.69;56.37;99511.47;5033245;28;20161;-83
2022/06/03 06:31:07;;;;;;;11.32;6.80;;;;;;;26.77;56.12;99510.44;5034152;28;20164;-84
2022/06/03 06:33:52;;;;;;;10.27;7.10;;;;;;;26.82;55.94;99512.97;4918545;29;20358;-84
2022/06/03 06:36:55;;;;;;;10.77;6.85;;;;;;;27.08;55.68;99515.06;4935387;29;20665;-84
2022/06/03 06:39:48;;;;;;;9.05;6.97;;;;;;;27.27;54.85;99521.56;4935434;29;20206;-84
2022/06/03 06:42:34;;;;;;;11.65;7.20;;;;;;;27.78;53.45;99524.75;4923465;29;20631;-82
2022/06/03 06:45:16;;;;;;;9.68;6.80;;;;;;;27.71;53.83;99524.06;4905495;29;20221;-87
2022/06/03 06:48:03;;;;;;;11.23;7.20;;;;;;;27.29;53.83;99436.56;4923651;29;20185;-86
2022/06/03 06:50:57;;;;;;;12.73;6.93;;;;;;;26.94;52.43;99349.03;4884135;29;20220;-87
2022/06/03 06:53:25;;;;;;;11.10;7.00;;;;;;;27.92;52.52;99507.06;4880479;29;20242;-87
2022/06/03 06:56:02;;;;;;;10.68;6.80;;;;;;;27.65;54.76;99510.31;4882018;29;20173;-88
2022/06/03 06:59:00;;;;;;;10.18;7.00;;;;;;;27.72;53.26;99445.09;4881300;29;20203;-89
2022/06/03 07:01:34;;;;;;;11.77;7.35;;;;;;;28.07;54.19;99510.16;4880706;29;20217;-89
2022/06/03 07:04:11;;;;;;;10.98;7.75;;;;;;;28.19;54.56;99506.38;4882266;29;20262;-89
2022/06/03 07:06:48;;;;;;;14.25;7.78;;;;;;;25.10;55.11;98988.94;4866214;29;20271;-89
2022/06/03 07:09:14;;;;;;;20.40;7.75;;;;;;;28.60;54.15;99520.91;4865313;29;20182;-88
2022/06/03 07:12:27;;;;;;;10.32;7.20;;;;;;;28.25;53.37;99514.03;4935229;29;20196;-89
2022/06/03 07:15:00;;;;;;;11.73;7.18;;;;;;;27.45;54.96;99360.78;4909244;29;20293;-87
2022/06/03 07:20:55;;;;;;;15.07;7.18;;;;;;;28.02;52.99;99357.53;4917788;29;20203;-89
2022/06/03 07:23:49;;;;;;;14.13;7.60;;;;;;;28.65;51.24;99376.59;4917217;29;20176;-88
2022/06/03 07:26:33;;;;;;;12.10;7.40;;;;;;;28.22;52.15;99368.28;4903429;29;20221;-88
2022/06/03 07:29:09;;;;;;;13.25;7.82;;;;;;;28.41;52.27;99412.91;4901717;29;20180;-88
2022/06/03 07:31:48;;;;;;;13.07;7.97;;;;;;;28.41;52.01;99385.09;4918173;29;20195;-89
2022/06/03 07:34:24;;;;;;;10.50;7.78;;;;;;;28.85;52.57;99516.75;4912460;29;20668;-89
2022/06/03 07:37:04;;;;;;;11.40;7.90;;;;;;;29.04;51.80;99510.13;4939707;29;20186;-88
2022/06/03 07:39:35;;;;;;;11.00;7.63;;;;;;;29.13;51.74;99512.47;4927604;29;20232;-88
2022/06/03 07:42:09;;;;;;;11.73;7.45;;;;;;;29.48;51.16;99514.03;4929093;29;20232;-89
2022/06/03 07:44:47;;;;;;;12.00;7.47;;;;;;;27.30;50.00;99061.28;4924003;29;20222;-89
2022/06/03 07:47:15;;;;;;;16.48;7.53;;;;;;;28.57;49.21;99232.66;4920942;29;20228;-90
2022/06/03 07:49:44;;;;;;;14.23;7.53;;;;;;;28.15;49.35;99194.06;4920265;29;20815;-88
2022/06/03 07:52:25;;;;;;;14.60;7.38;;;;;;;28.72;48.93;99339.94;5021666;28;20199;-89
2022/06/03 07:54:55;;;;;;;10.63;7.18;;;;;;;30.43;46.91;99520.50;5056867;28;20209;-87
2022/06/03 07:57:24;;;;;;;16.73;7.60;;;;;;;30.81;47.02;99516.53;5028687;28;20288;-89
2022/06/03 08:00:03;;;;;;;15.15;7.63;;;;;;;30.65;46.80;99511.00;5022695;28;20188;-89
2022/06/03 08:02:29;;;;;;;11.88;7.10;;;;;;;30.52;46.06;99525.41;5039034;28;20194;-88
2022/06/03 08:05:06;;;;;;;11.18;7.50;;;;;;;30.32;46.54;99522.59;5032808;28;20180;-89
2022/06/03 08:13:12;;;;;;;13.30;7.18;;;;;;;31.45;44.17;99541.16;5032140;28;20208;-88
2022/06/03 08:15:50;;;;;;;10.98;7.00;;;;;;;28.13;43.67;99027.50;5013919;28;20278;-88
2022/06/03 08:18:25;;;;;;;8.70;6.30;;;;;;;30.45;41.92;99341.00;5016007;28;20304;-88
2022/06/03 08:21:21;;;;;;;9.13;6.85;;;;;;;27.56;43.33;98985.09;5014813;28;20548;-88
2022/06/03 08:23:47;;;;;;;10.65;6.65;;;;;;;30.06;42.51;99369.38;5018987;28;20165;-90
2022/06/03 08:26:20;;;;;;;10.13;6.93;;;;;;;27.92;41.73;98984.78;5019324;28;20291;-89
2022/06/03 08:28:56;;;;;;;8.73;5.93;;;;;;;28.78;40.67;99084.34;5018894;28;20170;-87
2022/06/03 08:31:24;;;;;;;11.93;6.03;;;;;;;30.55;39.80;99284.84;5041105;28;20179;-89
2022/06/03 08:33:55;;;;;;;8.57;6.22;;;;;;;28.48;40.54;98903.91;5018817;28;20170;-88
2022/06/03 08:36:34;;;;;;;8.57;6.53;;;;;;;31.35;40.84;99456.03;5036090;28;20206;-88
2022/06/03 08:39:03;;;;;;;12.35;6.97;;;;;;;32.13;40.77;99534.94;5019199;28;20172;-88
2022/06/03 08:41:53;;;;;;;11.75;7.00;;;;;;;32.05;40.17;99538.75;5036699;28;20257;-88
2022/06/03 08:44:21;;;;;;;10.57;6.78;;;;;;;32.51;38.85;99535.03;5039624;28;20198;-85
2022/06/03 08:46:49;;;;;;;9.43;6.55;;;;;;;32.38;39.66;99538.25;5050153;28;20185;-85
2022/06/03 08:49:25;;;;;;;7.22;6.25;;;;;;;32.80;39.09;99541.63;5019316;28;20208;-88
2022/06/03 08:51:56;;;;;;;9.88;6.35;;;;;;;29.25;38.51;98940.09;5018415;28;20170;-88
2022/06/03 08:54:42;;;;;;;9.77;6.20;;;;;;;32.53;38.16;99537.56;5035695;28;20166;-88
2022/06/03 08:57:20;;;;;;;9.90;6.03;;;;;;;30.49;38.41;99182.31;5036017;28;20162;-88
2022/06/03 09:00:12;;;;;;;7.82;5.60;;;;;;;32.71;36.86;99536.81;5035616;28;20583;-88
2022/06/03 09:02:48;;;;;;;8.88;5.53;;;;;;;30.38;36.36;99211.50;5035947;28;20253;-89
2022/06/03 09:05:25;;;;;;;8.80;5.47;;;;;;;31.03;36.80;99255.91;5036145;28;20701;-88
2022/06/03 09:07:57;;;;;;;12.43;6.15;;;;;;;33.10;37.08;99532.41;5021665;28;20173;-88
2022/06/03 09:10:31;;;;;;;8.77;5.10;;;;;;;33.54;34.19;99553.13;5017407;28;20166;-87
2022/06/03 09:13:04;;;;;;;8.23;5.20;;;;;;;32.83;33.07;99317.69;5034988;28;20166;-89
2022/06/03 09:15:37;;;;;;;8.90;5.45;;;;;;;32.66;34.29;99297.53;5034738;28;20158;-88
2022/06/03 09:18:23;;;;;;;7.45;5.70;;;;;;;32.87;35.60;99543.06;5017223;28;20522;-88
2022/06/03 09:20:57;;;;;;;8.02;5.90;;;;;;;31.47;36.45;99246.19;5017589;28;20174;-88
2022/06/03 09:23:27;;;;;;;19.58;13.77;;;;;;;31.11;36.26;99247.72;5018198;28;20201;-89
2022/06/03 09:26:00;;;;;;;35.67;23.67;;;;;;;32.69;35.75;99531.63;5018759;28;20270;-88
2022/06/03 09:28:40;;;;;;;9.05;6.18;;;;;;;29.56;33.72;98989.28;5017351;28;20240;-88
2022/06/03 09:31:10;;;;;;;12.50;7.20;;;;;;;31.01;34.49;99173.19;5017134;28;20174;-87
2022/06/03 09:33:38;;;;;;;11.00;7.20;;;;;;;30.85;34.24;99079.66;5034142;28;20170;-88
2022/06/03 09:36:13;;;;;;;8.15;5.85;;;;;;;31.56;34.82;99251.03;5016693;28;20173;-88
2022/06/03 09:39:17;;;;;;;10.02;5.78;;;;;;;30.20;33.73;99000.59;5017469;28;20179;-88
2022/06/03 09:41:46;;;;;;;9.80;5.30;;;;;;;31.32;33.86;99249.44;4942733;29;20204;-88
2022/06/03 09:44:15;;;;;;;8.10;5.15;;;;;;;29.76;33.50;98956.28;4935908;29;20197;-88
2022/06/03 09:46:43;;;;;;;6.55;4.80;;;;;;;33.63;31.75;99505.44;4938880;29;20219;-89
2022/06/03 09:49:10;;;;;;;7.40;5.03;;;;;;;31.01;31.51;99021.50;4940074;29;20173;-88
2022/06/03 09:51:56;;;;;;;8.30;4.80;;;;;;;31.29;32.02;99179.75;4923524;29;20275;-89
2022/06/03 09:54:30;;;;;;;9.93;4.75;;;;;;;32.10;32.34;99268.69;4936666;29;20161;-89
2022/06/03 09:57:22;;;;;;;7.18;4.90;;;;;;;33.32;32.09;99498.13;4938081;29;20165;-88
2022/06/03 10:00:24;;;;;;;8.07;6.30;;;;;;;31.02;32.69;99081.56;4924122;29;20184;-88
2022/06/03 10:02:52;;;;;;;8.90;6.40;;;;;;;33.24;32.69;99395.28;4882057;29;20243;-89
2022/06/03 10:05:19;;;;;;;8.20;5.32;;;;;;;33.50;31.90;99402.75;4883217;29;20222;-88
2022/06/03 10:07:50;;;;;;;7.95;4.88;;;;;;;32.16;32.83;99197.66;4866279;29;20255;-87
2022/06/03 10:13:03;;;;;;;8.27;4.97;;;;;;;32.81;31.97;99309.91;4879870;29;20283;-90
2022/06/03 10:15:38;;;;;;;8.65;5.97;;;;;;;34.05;31.67;99505.94;4879826;29;20629;-89
2022/06/03 10:18:25;;;;;;;8.68;5.88;;;;;;;32.90;31.17;99259.63;4894927;29;20194;-89
2022/06/03 10:21:19;;;;;;;6.22;5.00;;;;;;;31.57;30.74;99090.41;4899087;29;20194;-88
2022/06/03 10:24:03;;;;;;;6.60;4.63;;;;;;;34.16;30.21;99508.06;4860841;29;20191;-87
2022/06/03 10:26:59;;;;;;;6.43;4.97;;;;;;;33.94;30.54;99521.41;4876393;29;20389;-87
2022/06/03 10:29:30;;;;;;;6.40;4.80;;;;;;;33.82;30.81;99514.09;4877096;29;20226;-88
2022/06/03 10:32:30;;;;;;;8.63;4.72;;;;;;;33.95;31.06;99507.34;4876940;29;20238;-88
2022/06/03 10:35:18;;;;;;;5.97;5.00;;;;;;;34.01;31.20;99517.53;4862470;29;20219;-89
2022/06/03 10:38:03;;;;;;;7.65;5.30;;;;;;;33.31;31.73;99414.22;4861415;29;20195;-88
2022/06/03 10:40:55;;;;;;;7.13;5.20;;;;;;;33.65;31.82;99451.06;4907248;29;20196;-87
2022/06/03 10:44:02;;;;;;;9.45;5.25;;;;;;;33.62;31.71;99501.13;4915684;29;20746;-89
2022/06/03 10:46:59;;;;;;;7.70;4.97;;;;;;;33.43;31.50;99413.63;4893803;29;20285;-88
2022/06/03 10:49:32;;;;;;;7.50;5.00;;;;;;;33.53;32.13;99509.41;4851004;29;20199;-88
2022/06/03 11:01:51;;;;;;;7.45;4.82;;;;;;;33.66;29.47;99492.16;4891902;29;20190;-88
2022/06/03 11:04:46;;;;;;;8.65;4.80;;;;;;;31.08;29.07;99007.22;4880756;29;20245;-93
2022/06/03 11:07:31;;;;;;;6.45;4.50;;;;;;;34.12;28.66;99509.13;4896700;29;20218;-86
2022/06/03 11:10:37;;;;;;;7.70;4.50;;;;;;;31.66;28.13;99165.94;4890114;29;20194;-87
2022/06/03 11:13:21;;;;;;;;;;;;;;;;;;;;;
2022/06/03 11:16:32;;;;;;;6.30;4.32;;;;;;;33.91;27.18;99481.28;4838399;29;20184;-87
2022/06/03 11:19:17;;;;;;;4.32;3.80;;;;;;;33.41;26.93;99474.06;4764787;30;20195;-87
2022/06/03 11:22:18;;;;;;;4.30;3.78;;;;;;;30.98;26.93;99027.72;4766486;30;20225;-88
2022/06/03 11:25:19;;;;;;;6.80;4.60;;;;;;;33.53;28.00;99389.47;4713647;30;20209;-88
2022/06/03 11:28:06;;;;;;;5.90;4.35;;;;;;;33.68;28.45;99358.94;4712982;30;20213;-89
2022/06/03 11:31:02;;;;;;;6.75;4.97;;;;;;;34.50;27.33;99462.47;4713922;30;20300;-89
2022/06/03 11:34:40;;;;;;;6.32;4.57;;;;;;;34.75;25.97;99466.34;4713383;30;20280;-86
2022/06/03 11:37:26;;;;;;;6.45;4.32;;;;;;;34.85;26.21;99306.19;4720728;30;20197;-89
2022/06/03 11:40:13;;;;;;;6.68;4.78;;;;;;;36.35;26.24;99466.84;4714316;30;20201;-89
2022/06/03 11:43:33;;;;;;;5.38;4.72;;;;;;;34.10;25.78;98943.31;4712339;30;20719;-88
2022/06/03 11:46:25;;;;;;;6.57;4.38;;;;;;;36.61;24.56;99165.34;4749558;30;20733;-89
2022/06/03 11:52:00;;;;;;;9.63;4.50;;;;;;;39.83;23.76;99443.03;4785717;30;20186;-89
2022/06/03 11:54:31;;;;;;;5.72;4.20;;;;;;;35.99;23.88;98945.28;4787695;29;20225;-89
2022/06/03 11:57:02;;;;;;;6.28;4.40;;;;;;;38.24;23.67;99284.38;4873063;29;20266;-88
2022/06/03 11:59:39;;;;;;;5.00;4.35;;;;;;;35.74;23.83;99019.00;4878063;29;20671;-89
2022/06/03 12:02:08;;;;;;;5.03;4.25;;;;;;;37.12;25.30;99432.13;4881006;29;20183;-86
2022/06/03 12:04:49;;;;;;;6.75;4.45;;;;;;;37.11;25.00;99436.56;4881365;29;20179;-85
2022/06/03 12:07:45;;;;;;;5.53;4.68;;;;;;;36.97;24.26;99256.25;4880382;29;20231;-85
2022/06/03 12:10:19;;;;;;;5.50;4.40;;;;;;;36.92;24.58;99333.03;4883380;29;20175;-85
2022/06/03 12:15:32;;;;;;;5.85;4.30;;;;;;;40.22;22.26;99462.22;4885143;29;20166;-85
2022/06/03 12:17:58;;;;;;;6.30;4.43;;;;;;;40.93;21.78;99459.25;4865888;29;20664;-86
2022/06/03 12:20:29;;;;;;;6.78;4.70;;;;;;;40.69;22.03;99445.22;4927136;29;20661;-87
2022/06/03 12:22:55;;;;;;;8.77;4.40;;;;;;;39.02;22.88;99380.22;4938333;29;20244;-86
2022/06/03 12:25:51;;;;;;;6.93;4.43;;;;;;;39.03;22.98;99435.75;4938220;29;20300;-86
2022/06/03 12:28:42;;;;;;;7.53;4.50;;;;;;;39.35;23.03;99338.03;4886356;29;20190;-84
2022/06/03 12:31:20;;;;;;;6.25;4.38;;;;;;;39.95;21.97;99439.44;4900192;29;20221;-85
2022/06/03 12:33:57;;;;;;;5.63;4.03;;;;;;;40.76;21.67;99434.00;4900605;29;20197;-86
2022/06/03 12:36:46;;;;;;;12.93;5.03;;;;;;;40.50;26.56;99451.16;4901323;29;20166;-86
2022/06/03 12:39:12;;;;;;;15.43;5.13;;;;;;;39.40;28.52;99436.56;4899176;29;20186;-86
2022/06/03 12:41:46;;;;;;;11.32;5.07;;;;;;;39.29;29.15;99453.28;4899302;29;20189;-85
2022/06/03 12:44:36;;;;;;;14.07;5.25;;;;;;;38.47;30.19;99460.94;4900720;29;20230;-85
2022/06/03 12:47:37;;;;;;;17.98;5.25;;;;;;;38.28;29.86;99471.06;4898537;29;20403;-85
2022/06/03 12:50:05;;;;;;;13.02;5.00;;;;;;;38.13;29.35;99470.31;4899114;29;20182;-87
2022/06/03 12:52:31;;;;;;;10.05;4.82;;;;;;;38.42;29.12;99463.06;4898611;29;20235;-86
2022/06/03 12:55:02;;;;;;;9.20;4.80;;;;;;;37.83;28.93;99278.53;4910829;29;20178;-85
2022/06/03 12:57:54;;;;;;;10.30;4.78;;;;;;;38.80;29.43;99452.44;4928676;29;20665;-85
2022/06/03 13:00:20;;;;;;;9.15;5.10;;;;;;;39.81;28.27;99442.31;4924335;29;20166;-85
2022/06/03 13:02:56;;;;;;;7.65;5.10;;;;;;;41.33;27.36;99441.78;4919234;29;20174;-84
2022/06/03 13:05:27;;;;;;;8.77;5.28;;;;;;;39.49;28.16;99404.94;4920697;29;20220;-86
2022/06/03 13:08:21;;;;;;;9.52;5.50;;;;;;;38.39;29.13;99431.50;4943748;29;20169;-87
2022/06/03 13:10:54;;;;;;;7.97;5.57;;;;;;;37.55;30.28;99432.88;4866857;29;20270;-86
2022/06/03 13:13:42;;;;;;;8.13;5.45;;;;;;;36.63;30.91;99432.59;4883182;29;20187;-85